Time;durP1;ratioP1;P1;durP2;ratioP2;P2;SDS_P1;SDS_P2;PMS_P1;PMS_P2;Temp;Humidity;BMP_temperature;BMP_pressure;BME280_temperature;BME280_humidity;BME280_pressure;Samples;Min_cycle;Max_cycle;Signal;HPM_P1;HPM_P2
2022/04/08 00:00:50;;;;;;;109.55;98.25;;;6.90;97.30;;;;;;5019425;28;19926;-79
2022/04/08 00:03:17;;;;;;;;;;;6.90;97.40;;;;;;5019390;28;20046;-79
2022/04/08 00:05:44;;;;;;;109.53;98.20;;;6.90;97.20;;;;;;5019340;28;20693;-79
2022/04/08 00:08:11;;;;;;;;;;;6.90;97.20;;;;;;5018830;28;20516;-79
2022/04/08 00:10:39;;;;;;;113.18;101.35;;;6.90;97.30;;;;;;5019061;28;19925;-79
2022/04/08 00:13:06;;;;;;;111.85;100.22;;;6.80;97.30;;;;;;5018752;28;20050;-79
2022/04/08 00:15:36;;;;;;;111.35;99.97;;;6.80;97.20;;;;;;5002166;28;20420;-78
2022/04/08 00:18:03;;;;;;;112.75;101.10;;;6.80;97.20;;;;;;5018179;28;20052;-78
2022/04/08 00:20:32;;;;;;;111.10;99.82;;;6.80;97.40;;;;;;5035309;28;20050;-80
2022/04/08 00:22:59;;;;;;;110.45;99.15;;;6.70;97.30;;;;;;5002330;28;20053;-79
2022/04/08 00:25:25;;;;;;;;;;;6.70;97.40;;;;;;5018777;28;20056;-79
2022/04/08 00:27:54;;;;;;;113.30;101.78;;;6.70;97.60;;;;;;5018045;28;20350;-79
2022/04/08 00:30:21;;;;;;;110.65;99.43;;;6.70;97.60;;;;;;5017819;28;20836;-79
2022/04/08 00:32:48;;;;;;;110.90;99.55;;;6.70;97.70;;;;;;5017852;28;20050;-79
2022/04/08 00:35:15;;;;;;;110.15;98.80;;;6.70;97.70;;;;;;5018418;28;20997;-79
2022/04/08 00:37:41;;;;;;;109.00;97.80;;;6.70;97.70;;;;;;5019317;28;20096;-80
2022/04/08 00:40:10;;;;;;;111.53;100.25;;;6.60;97.70;;;;;;5018793;28;20064;-79
2022/04/08 00:42:37;;;;;;;110.28;98.78;;;6.60;97.70;;;;;;5001835;28;20133;-78
2022/04/08 00:45:06;;;;;;;109.40;98.22;;;6.60;97.80;;;;;;5018435;28;20140;-78
2022/04/08 00:47:35;;;;;;;108.65;97.95;;;6.60;97.90;;;;;;5018080;28;20105;-79
2022/04/08 00:50:03;;;;;;;109.82;99.03;;;6.60;97.60;;;;;;5018178;28;20046;-78
2022/04/08 00:52:32;;;;;;;109.47;98.75;;;6.60;97.60;;;;;;5018012;28;20108;-79
2022/04/08 00:54:59;;;;;;;109.95;99.10;;;6.50;97.40;;;;;;5018018;28;20089;-78
2022/04/08 00:57:26;;;;;;;109.35;98.55;;;6.50;97.40;;;;;;5017496;28;20447;-78
2022/04/08 00:59:53;;;;;;;109.35;98.65;;;6.40;97.40;;;;;;5017899;28;20066;-78
2022/04/08 01:02:21;;;;;;;109.70;99.00;;;6.30;97.50;;;;;;5001514;28;20136;-78
2022/04/08 01:04:48;;;;;;;109.90;99.00;;;6.30;97.60;;;;;;5018148;28;20052;-78
2022/04/08 01:07:16;;;;;;;111.35;100.55;;;6.30;97.60;;;;;;5035401;28;20080;-79
2022/04/08 01:09:43;;;;;;;109.25;98.55;;;6.20;97.50;;;;;;5035828;28;20050;-79
2022/04/08 01:12:10;;;;;;;;;;;6.20;97.50;;;;;;5036185;28;20137;-78
2022/04/08 01:14:39;;;;;;;109.75;98.55;;;6.20;97.50;;;;;;5018100;28;19936;-78
2022/04/08 01:17:07;;;;;;;114.43;103.13;;;6.10;97.50;;;;;;5033678;28;20050;-79
2022/04/08 01:19:35;;;;;;;;;;;6.10;97.50;;;;;;5034591;28;20155;-78
2022/04/08 01:22:02;;;;;;;113.07;101.30;;;6.10;97.40;;;;;;5015764;28;19925;-78
2022/04/08 01:24:45;;;;;;;107.68;96.78;;;6.10;97.10;;;;;;5018684;28;20133;-78
2022/04/08 01:27:13;;;;;;;111.43;100.07;;;6.00;96.80;;;;;;5015933;28;20058;-78
2022/04/08 01:29:40;;;;;;;111.85;100.38;;;5.90;96.80;;;;;;5016011;28;20511;-78
2022/04/08 01:32:08;;;;;;;110.55;99.32;;;5.80;96.80;;;;;;4999978;28;20498;-78
2022/04/08 01:34:35;;;;;;;112.18;101.30;;;5.80;96.80;;;;;;5032820;28;20537;-78
2022/04/08 01:37:02;;;;;;;111.63;100.38;;;5.70;96.80;;;;;;5015899;28;20077;-79
2022/04/08 01:39:29;;;;;;;111.00;99.78;;;5.70;96.80;;;;;;5016087;28;20108;-79
2022/04/08 01:41:56;;;;;;;;;;;5.70;96.80;;;;;;5000877;28;20050;-78
2022/04/08 01:44:24;;;;;;;111.13;99.43;;;5.70;96.80;;;;;;5001188;28;19969;-78
2022/04/08 01:46:51;;;;;;;110.35;99.00;;;5.70;96.70;;;;;;5017214;28;20164;-78
2022/04/08 01:49:18;;;;;;;109.72;98.50;;;5.70;96.50;;;;;;5017439;28;20050;-78
2022/04/08 01:51:44;;;;;;;110.43;99.32;;;5.60;96.50;;;;;;5017404;28;20617;-79
2022/04/08 01:54:11;;;;;;;110.63;99.35;;;5.60;96.50;;;;;;5017267;28;20108;-78
2022/04/08 01:56:38;;;;;;;111.60;99.93;;;5.50;96.50;;;;;;5016929;28;20080;-78
2022/04/08 01:59:05;;;;;;;110.03;98.75;;;5.50;96.70;;;;;;5017052;28;20459;-79
2022/04/08 02:01:33;;;;;;;109.65;98.32;;;5.50;96.70;;;;;;5017112;28;20061;-78
2022/04/08 02:04:00;;;;;;;109.80;98.47;;;5.50;96.70;;;;;;5016909;28;20112;-78
2022/04/08 02:06:27;;;;;;;109.82;98.07;;;5.50;96.80;;;;;;5016756;28;20077;-78
2022/04/08 02:08:54;;;;;;;110.15;99.05;;;5.40;96.80;;;;;;5000451;28;20160;-78
2022/04/08 02:11:21;;;;;;;109.95;98.57;;;5.40;96.80;;;;;;5035053;28;20060;-78
2022/04/08 02:13:48;;;;;;;110.05;98.63;;;5.40;97.00;;;;;;5034586;28;20567;-78
2022/04/08 02:16:15;;;;;;;109.55;98.22;;;5.40;97.00;;;;;;5016618;28;20049;-78
2022/04/08 02:18:43;;;;;;;109.60;98.53;;;5.30;97.10;;;;;;5016708;28;20057;-78
2022/04/08 02:21:10;;;;;;;109.93;98.50;;;5.30;97.10;;;;;;5016805;28;20053;-78
2022/04/08 02:23:38;;;;;;;111.25;99.50;;;5.30;97.10;;;;;;5015998;28;20042;-78
2022/04/08 02:26:06;;;;;;;;;;;5.30;97.00;;;;;;5017179;28;20050;-78
2022/04/08 02:28:33;;;;;;;111.53;99.75;;;5.30;97.00;;;;;;5016598;28;19925;-78
2022/04/08 02:31:00;;;;;;;110.38;98.75;;;5.20;97.00;;;;;;5034349;28;20904;-78
2022/04/08 02:33:27;;;;;;;111.63;100.03;;;5.20;97.10;;;;;;5034486;28;20050;-78
2022/04/08 02:35:55;;;;;;;110.90;99.53;;;5.20;97.10;;;;;;5016334;28;20136;-78
2022/04/08 02:38:22;;;;;;;110.90;99.38;;;5.20;97.10;;;;;;5016221;28;20050;-78
2022/04/08 02:40:49;;;;;;;110.97;99.10;;;5.10;97.20;;;;;;5034249;28;20050;-78
2022/04/08 02:43:16;;;;;;;110.38;98.32;;;5.10;97.30;;;;;;5016329;28;20042;-79
2022/04/08 02:45:43;;;;;;;112.05;100.05;;;5.10;97.30;;;;;;5016941;28;20101;-78
2022/04/08 02:48:13;;;;;;;113.28;100.85;;;5.10;97.40;;;;;;5016072;28;20057;-78
2022/04/08 02:50:40;;;;;;;111.80;99.13;;;5.20;97.50;;;;;;5004312;28;20047;-78
2022/04/08 02:53:09;;;;;;;113.53;101.43;;;5.20;97.00;;;;;;5012793;28;20050;-78
2022/04/08 02:55:36;;;;;;;112.28;100.00;;;5.20;96.80;;;;;;5013218;28;20054;-78
2022/04/08 02:58:03;;;;;;;110.47;98.63;;;5.20;96.70;;;;;;5001415;28;20053;-78
2022/04/08 03:00:30;;;;;;;111.18;99.60;;;5.20;96.80;;;;;;5013196;28;20039;-78
2022/04/08 03:02:57;;;;;;;112.88;100.47;;;5.20;96.90;;;;;;4996657;28;20047;-78
2022/04/08 03:05:24;;;;;;;111.25;99.78;;;5.10;96.90;;;;;;4996552;28;20792;-78
2022/04/08 03:07:51;;;;;;;112.07;100.40;;;5.20;97.10;;;;;;5012862;28;20055;-78
2022/04/08 03:10:19;;;;;;;113.00;100.72;;;5.20;97.10;;;;;;5012543;28;20058;-78
2022/04/08 03:12:46;;;;;;;112.05;100.20;;;5.20;97.10;;;;;;5012633;28;20082;-78
2022/04/08 03:15:13;;;;;;;111.90;100.18;;;5.20;97.00;;;;;;5012658;28;20046;-78
2022/04/08 03:17:40;;;;;;;113.05;101.15;;;5.10;97.10;;;;;;5012827;28;20094;-78
2022/04/08 03:20:08;;;;;;;111.93;100.22;;;5.10;97.10;;;;;;5014321;28;20055;-78
2022/04/08 03:22:35;;;;;;;112.82;100.88;;;5.20;97.00;;;;;;5013903;28;20078;-78
2022/04/08 03:25:02;;;;;;;112.68;101.00;;;5.20;96.90;;;;;;5013499;28;20082;-78
2022/04/08 03:27:30;;;;;;;112.10;100.40;;;5.20;96.70;;;;;;5012348;28;20054;-78
2022/04/08 03:29:57;;;;;;;111.60;99.90;;;5.20;96.60;;;;;;5012697;28;20496;-78
2022/04/08 03:32:24;;;;;;;111.95;100.30;;;5.20;96.50;;;;;;5012528;28;20057;-78
2022/04/08 03:34:57;;;;;;;111.43;99.63;;;5.20;96.50;;;;;;5012386;28;20133;-78
2022/04/08 03:37:24;;;;;;;112.13;100.22;;;5.20;96.50;;;;;;5013631;28;20129;-77
2022/04/08 03:39:51;;;;;;;110.57;99.10;;;5.20;96.40;;;;;;5012498;28;20047;-78
2022/04/08 03:42:18;;;;;;;110.97;99.25;;;5.20;95.90;;;;;;5012238;28;20077;-78
2022/04/08 03:44:46;;;;;;;110.57;98.85;;;5.30;95.30;;;;;;5012377;28;20062;-78
2022/04/08 03:47:13;;;;;;;111.18;99.57;;;5.30;95.20;;;;;;4995674;28;20624;-78
2022/04/08 03:49:40;;;;;;;111.40;99.25;;;5.30;95.30;;;;;;5013776;28;20133;-78
2022/04/08 03:52:09;;;;;;;110.45;98.97;;;5.30;95.50;;;;;;5012234;28;20125;-78
2022/04/08 03:54:36;;;;;;;110.18;98.78;;;5.30;95.50;;;;;;4995880;28;20061;-78
2022/04/08 03:57:03;;;;;;;112.93;101.28;;;5.30;95.30;;;;;;5013122;28;20047;-78
2022/04/08 03:59:30;;;;;;;111.68;99.75;;;5.30;95.30;;;;;;5012320;28;20059;-78
2022/04/08 04:02:01;;;;;;;;;;;5.30;95.50;;;;;;5012668;28;20050;-78
2022/04/08 04:04:28;;;;;;;109.20;97.53;;;5.30;95.80;;;;;;5013764;28;19925;-78
2022/04/08 04:06:55;;;;;;;113.00;100.72;;;5.20;96.00;;;;;;4998436;28;20600;-78
2022/04/08 04:09:21;;;;;;;110.78;99.55;;;5.30;96.00;;;;;;5015605;28;20058;-77
2022/04/08 04:11:48;;;;;;;111.13;99.68;;;5.20;96.10;;;;;;5015482;28;20047;-79
2022/04/08 04:14:15;;;;;;;111.35;99.30;;;5.20;96.00;;;;;;5015223;28;20065;-79
2022/04/08 04:16:42;;;;;;;111.32;99.78;;;5.20;96.00;;;;;;4998927;28;20058;-78
2022/04/08 04:19:10;;;;;;;110.28;98.88;;;5.20;96.00;;;;;;5014380;28;20133;-78
2022/04/08 04:21:37;;;;;;;109.75;98.65;;;5.20;96.10;;;;;;5016559;28;20042;-78
2022/04/08 04:24:05;;;;;;;112.30;100.68;;;5.20;96.10;;;;;;5015011;28;20809;-79
2022/04/08 04:26:32;;;;;;;110.07;99.18;;;5.20;96.10;;;;;;5014950;28;20142;-78
2022/04/08 04:28:58;;;;;;;110.47;99.32;;;5.10;96.10;;;;;;5016272;28;20058;-78
2022/04/08 04:31:25;;;;;;;109.88;98.88;;;5.10;96.00;;;;;;5016337;28;20050;-78
2022/04/08 04:33:52;;;;;;;110.72;99.53;;;5.10;96.10;;;;;;5014971;28;20055;-78
2022/04/08 04:36:21;;;;;;;110.63;99.43;;;5.10;96.10;;;;;;5015014;28;20078;-79
2022/04/08 04:38:47;;;;;;;110.95;99.65;;;5.10;96.10;;;;;;5016267;28;20153;-78
2022/04/08 04:41:15;;;;;;;109.93;98.93;;;5.10;96.20;;;;;;4998545;28;20043;-79
2022/04/08 04:43:42;;;;;;;110.97;99.72;;;5.10;96.20;;;;;;5016315;28;20058;-79
2022/04/08 04:49:04;;;;;;;109.68;98.72;;;5.10;96.20;;;;;;4994707;28;20061;-79
2022/04/08 04:51:32;;;;;;;109.30;98.32;;;5.10;96.10;;;;;;4997561;28;20047;-78
2022/04/08 04:53:59;;;;;;;110.40;99.30;;;5.00;96.20;;;;;;5014465;28;20125;-79
2022/04/08 04:56:26;;;;;;;111.45;99.82;;;5.00;96.20;;;;;;4997581;28;20073;-79
2022/04/08 04:58:56;;;;;;;111.60;100.30;;;5.00;96.20;;;;;;4993185;28;20078;-79
2022/04/08 05:01:23;;;;;;;110.75;99.60;;;5.00;96.20;;;;;;4990854;28;20141;-79
2022/04/08 05:03:50;;;;;;;110.07;99.18;;;5.00;96.40;;;;;;5008545;28;20496;-79
2022/04/08 05:06:17;;;;;;;110.32;98.95;;;5.00;96.30;;;;;;4988058;28;20046;-79
2022/04/08 05:08:45;;;;;;;110.80;99.63;;;5.00;96.30;;;;;;5012781;28;20101;-79
2022/04/08 05:11:12;;;;;;;110.28;99.18;;;4.90;96.40;;;;;;4990825;28;20137;-78
2022/04/08 05:13:39;;;;;;;110.68;99.40;;;4.90;96.40;;;;;;4992359;28;20515;-78
2022/04/08 05:16:06;;;;;;;109.88;98.93;;;4.90;96.50;;;;;;4982895;28;20065;-79
2022/04/08 05:18:34;;;;;;;111.28;99.68;;;4.90;96.50;;;;;;4991831;28;20505;-79
2022/04/08 05:21:01;;;;;;;112.90;101.47;;;4.90;96.60;;;;;;4991068;28;20057;-78
2022/04/08 05:23:29;;;;;;;109.97;98.82;;;4.90;96.70;;;;;;4994244;28;20918;-78
2022/04/08 05:25:58;;;;;;;110.88;99.75;;;4.90;96.80;;;;;;4994849;28;20073;-78
2022/04/08 05:28:25;;;;;;;110.97;99.35;;;4.90;96.80;;;;;;4994225;28;20493;-78
2022/04/08 05:30:52;;;;;;;109.57;98.38;;;4.90;96.80;;;;;;4961323;28;20547;-79
2022/04/08 05:33:19;;;;;;;109.32;98.13;;;4.90;96.80;;;;;;4996520;28;20985;-78
2022/04/08 05:35:46;;;;;;;108.95;97.65;;;4.90;96.90;;;;;;5011200;28;20058;-79
2022/04/08 05:38:13;;;;;;;109.93;98.63;;;5.00;96.90;;;;;;5013258;28;20101;-79
2022/04/08 05:40:41;;;;;;;108.80;97.65;;;5.00;96.70;;;;;;5000460;28;20728;-82
2022/04/08 05:43:10;;;;;;;108.88;97.97;;;5.00;96.80;;;;;;4997195;28;20054;-79
2022/04/08 05:45:37;;;;;;;108.07;97.13;;;4.90;96.90;;;;;;4997369;28;20050;-77
2022/04/08 05:48:05;;;;;;;109.35;98.40;;;4.90;96.90;;;;;;5012804;28;20058;-80
2022/04/08 05:50:32;;;;;;;109.85;98.85;;;4.90;96.90;;;;;;5013636;28;20053;-79
2022/04/08 05:52:59;;;;;;;109.22;98.15;;;4.90;96.90;;;;;;5013910;28;20050;-79
2022/04/08 05:55:26;;;;;;;109.25;98.25;;;4.90;96.90;;;;;;4991945;28;20077;-81
2022/04/08 05:57:55;;;;;;;111.60;100.63;;;4.80;97.00;;;;;;4987587;28;20555;-81
2022/04/08 06:00:24;;;;;;;108.00;97.22;;;4.80;97.00;;;;;;5001474;28;20050;-81
2022/04/08 06:02:55;;;;;;;108.88;97.70;;;4.80;96.90;;;;;;4991357;28;20047;-82
2022/04/08 06:05:22;;;;;;;109.38;98.28;;;4.90;96.80;;;;;;4984790;28;20050;-82
2022/04/08 06:07:53;;;;;;;109.03;98.28;;;4.90;96.80;;;;;;4980330;28;20555;-82
2022/04/08 06:10:23;;;;;;;109.55;98.50;;;4.90;96.80;;;;;;4984471;28;20046;-81
2022/04/08 06:12:50;;;;;;;109.72;98.72;;;4.90;96.90;;;;;;4984783;28;20477;-81
2022/04/08 06:15:18;;;;;;;109.00;97.97;;;4.90;96.90;;;;;;4996069;28;20632;-80
2022/04/08 06:17:47;;;;;;;110.00;98.95;;;4.80;97.00;;;;;;4977285;28;20056;-81
2022/04/08 06:20:16;;;;;;;110.40;99.20;;;4.80;97.10;;;;;;4996584;28;20080;-82
2022/04/08 06:22:43;;;;;;;109.43;98.22;;;4.70;97.00;;;;;;4996118;28;20060;-81
2022/04/08 06:25:11;;;;;;;109.03;97.93;;;4.70;97.00;;;;;;4996809;28;20054;-81
2022/04/08 06:27:38;;;;;;;110.63;99.57;;;4.70;97.10;;;;;;4994690;28;20130;-81
2022/04/08 06:30:10;;;;;;;109.13;98.03;;;4.60;97.20;;;;;;4982186;28;20512;-81
2022/04/08 06:32:38;;;;;;;108.45;97.55;;;4.60;97.30;;;;;;4980549;28;20050;-81
2022/04/08 06:35:06;;;;;;;;;;;4.60;97.40;;;;;;4997471;28;20065;-81
2022/04/08 06:37:34;;;;;;;107.35;96.40;;;4.60;97.40;;;;;;4996883;28;19925;-81
2022/04/08 06:40:04;;;;;;;108.47;97.57;;;4.60;97.30;;;;;;4996448;28;20054;-81
2022/04/08 06:42:31;;;;;;;107.97;97.20;;;4.70;97.40;;;;;;4990055;28;20062;-81
2022/04/08 06:44:58;;;;;;;110.22;98.93;;;4.70;97.50;;;;;;4984746;28;20050;-82
2022/04/08 06:47:25;;;;;;;110.40;99.22;;;4.70;97.60;;;;;;4992750;28;20060;-80
2022/04/08 06:49:52;;;;;;;117.55;105.70;;;4.70;97.60;;;;;;5024159;22;20034;-80
2022/04/08 06:52:20;;;;;;;110.32;99.18;;;4.80;97.40;;;;;;5015089;28;20052;-80
2022/04/08 06:54:47;;;;;;;109.97;98.90;;;4.80;97.50;;;;;;5024467;28;20053;-79
2022/04/08 06:57:14;;;;;;;110.47;99.53;;;4.80;97.60;;;;;;5018653;28;20053;-78
2022/04/08 06:59:41;;;;;;;109.45;98.47;;;4.90;97.50;;;;;;5053384;28;20049;-78
2022/04/08 07:02:09;;;;;;;109.00;97.97;;;4.90;97.50;;;;;;5019484;28;20634;-79
2022/04/08 07:04:36;;;;;;;109.22;98.22;;;4.90;97.20;;;;;;5035711;28;20049;-78
2022/04/08 07:07:04;;;;;;;111.20;100.00;;;5.00;97.20;;;;;;5019272;28;20116;-78
2022/04/08 07:09:33;;;;;;;110.05;98.82;;;5.00;97.10;;;;;;5036126;28;20049;-78
2022/04/08 07:12:01;;;;;;;109.75;98.68;;;5.00;97.00;;;;;;5035674;28;20057;-78
2022/04/08 07:14:28;;;;;;;109.43;98.43;;;5.10;96.70;;;;;;5052572;28;20053;-78
2022/04/08 07:16:55;;;;;;;110.10;99.05;;;5.10;96.60;;;;;;5035987;28;20423;-78
2022/04/08 07:19:22;;;;;;;109.43;98.28;;;5.20;96.70;;;;;;5035769;28;20602;-78
2022/04/08 07:21:49;;;;;;;108.45;97.65;;;5.20;96.70;;;;;;5019397;28;20058;-78
2022/04/08 07:24:16;;;;;;;110.15;99.00;;;5.30;96.80;;;;;;5019235;28;20140;-78
2022/04/08 07:26:44;;;;;;;111.83;100.37;;;5.40;96.70;;;;;;5019214;28;20049;-78
2022/04/08 07:29:11;;;;;;;108.97;97.90;;;5.50;96.60;;;;;;5035314;28;20264;-78
2022/04/08 07:31:38;;;;;;;111.00;99.50;;;5.60;96.50;;;;;;5035596;28;20050;-78
2022/04/08 07:34:05;;;;;;;109.88;98.78;;;5.70;96.50;;;;;;5053777;28;20054;-78
2022/04/08 07:36:32;;;;;;;110.38;99.15;;;5.70;96.70;;;;;;5035596;28;20048;-78
2022/04/08 07:38:59;;;;;;;110.72;99.45;;;5.80;96.70;;;;;;5035273;28;20537;-78
2022/04/08 07:41:26;;;;;;;112.55;100.35;;;5.90;96.50;;;;;;5037789;28;20046;-78
2022/04/08 07:43:55;;;;;;;89.60;80.45;;;6.00;96.50;;;;;;5038630;28;20052;-78
2022/04/08 07:46:22;;;;;;;111.55;100.20;;;6.10;96.30;;;;;;5042615;28;20042;-79
2022/04/08 07:48:49;;;;;;;111.85;100.18;;;6.10;96.30;;;;;;5055135;28;20124;-79
2022/04/08 07:51:16;;;;;;;113.35;101.65;;;6.20;96.30;;;;;;5047393;28;20064;-79
2022/04/08 07:53:43;;;;;;;110.47;99.28;;;6.20;96.20;;;;;;5056948;28;20049;-77
2022/04/08 07:56:10;;;;;;;110.95;99.47;;;6.10;96.20;;;;;;5039061;28;20056;-77
2022/04/08 07:58:37;;;;;;;111.55;99.97;;;6.10;96.40;;;;;;5037789;28;20046;-78
2022/04/08 08:01:05;;;;;;;110.43;98.88;;;6.00;96.70;;;;;;5038227;28;20085;-80
2022/04/08 08:03:34;;;;;;;111.35;100.07;;;6.00;96.70;;;;;;5035148;28;20141;-79
2022/04/08 08:06:03;;;;;;;112.22;100.47;;;6.00;96.90;;;;;;5036200;28;20056;-79
2022/04/08 08:08:30;;;;;;;110.88;99.50;;;6.00;97.00;;;;;;5021862;28;20065;-79
2022/04/08 08:10:57;;;;;;;111.88;100.30;;;6.00;97.00;;;;;;5038499;28;20079;-79
2022/04/08 08:13:25;;;;;;;112.65;100.78;;;6.00;97.20;;;;;;5021972;28;20131;-79
2022/04/08 08:15:51;;;;;;;;;;;6.00;97.30;;;;;;5039094;28;20660;-79
2022/04/08 08:18:21;;;;;;;111.38;99.68;;;6.00;97.30;;;;;;5038206;28;19955;-79
2022/04/08 08:20:49;;;;;;;111.03;99.70;;;5.90;97.30;;;;;;5038463;28;20055;-80
2022/04/08 08:23:16;;;;;;;111.88;100.32;;;5.90;97.40;;;;;;5038505;28;20053;-80
2022/04/08 08:25:44;;;;;;;110.03;98.88;;;6.00;97.60;;;;;;5038475;28;20626;-80
2022/04/08 08:28:11;;;;;;;;;;;6.00;97.60;;;;;;5037886;28;20062;-78
2022/04/08 08:30:38;;;;;;;111.57;99.93;;;6.10;97.40;;;;;;5038199;28;19925;-79
2022/04/08 08:33:06;;;;;;;;;;;6.10;97.70;;;;;;5038290;28;20060;-79
2022/04/08 08:35:35;;;;;;;110.70;99.38;;;6.10;97.80;;;;;;5055075;28;19925;-79
2022/04/08 08:38:02;;;;;;;112.10;100.78;;;6.10;97.80;;;;;;5021254;28;20104;-78
2022/04/08 08:40:32;;;;;;;112.22;100.88;;;6.20;97.90;;;;;;5056001;28;20064;-78
2022/04/08 08:42:59;;;;;;;111.68;100.57;;;6.20;97.90;;;;;;5037967;28;20060;-78
2022/04/08 08:45:29;;;;;;;111.97;100.88;;;6.20;98.00;;;;;;5037861;28;20045;-80
2022/04/08 08:48:00;;;;;;;111.38;99.88;;;6.30;97.80;;;;;;5037281;28;20104;-79
2022/04/08 08:50:28;;;;;;;110.55;99.07;;;6.30;97.80;;;;;;5037214;28;20057;-79
2022/04/08 08:52:57;;;;;;;110.82;99.72;;;6.40;97.90;;;;;;5037393;28;20057;-80
2022/04/08 08:55:24;;;;;;;109.43;98.45;;;6.40;98.10;;;;;;5021032;28;20077;-79
2022/04/08 08:57:52;;;;;;;113.00;101.95;;;6.50;97.80;;;;;;5019925;28;20104;-79
2022/04/08 09:00:23;;;;;;;109.63;98.35;;;6.60;97.80;;;;;;5036828;28;20052;-79
2022/04/08 09:02:50;;;;;;;112.00;100.78;;;6.60;97.70;;;;;;5054643;28;20152;-79
2022/04/08 09:05:19;;;;;;;111.35;100.07;;;6.70;97.80;;;;;;5037298;28;20050;-80
2022/04/08 09:07:54;;;;;;;113.50;101.75;;;6.80;97.60;;;;;;5037064;28;20042;-79
2022/04/08 09:10:28;;;;;;;110.60;99.03;;;6.80;97.60;;;;;;5036956;28;20057;-79
2022/04/08 09:12:56;;;;;;;110.60;99.40;;;6.90;97.40;;;;;;5037786;28;20132;-79
2022/04/08 09:15:23;;;;;;;111.72;100.68;;;7.00;97.60;;;;;;5054328;28;20060;-79
2022/04/08 09:17:50;;;;;;;111.45;99.95;;;7.00;97.40;;;;;;5055177;28;20049;-79
2022/04/08 09:20:18;;;;;;;113.40;101.63;;;7.10;97.50;;;;;;5037506;28;20512;-79
2022/04/08 09:22:54;;;;;;;112.85;101.22;;;7.20;97.50;;;;;;5037641;28;20045;-79
2022/04/08 09:25:27;;;;;;;113.38;101.30;;;7.30;97.40;;;;;;5037562;28;20132;-79
2022/04/08 09:27:57;;;;;;;112.72;101.10;;;7.40;97.30;;;;;;5053902;28;20060;-79
2022/04/08 09:30:25;;;;;;;112.03;100.10;;;7.40;97.30;;;;;;5037411;28;20077;-80
2022/04/08 09:32:52;;;;;;;113.38;101.45;;;7.50;97.10;;;;;;5021080;28;20042;-80
2022/04/08 09:35:20;;;;;;;114.90;102.65;;;7.60;96.70;;;;;;5037071;28;20141;-79
2022/04/08 09:37:58;;;;;;;115.07;103.25;;;7.60;96.40;;;;;;5035993;28;20050;-80
2022/04/08 09:40:34;;;;;;;113.22;101.13;;;7.70;96.70;;;;;;5054517;28;20092;-80
2022/04/08 09:43:01;;;;;;;116.25;104.20;;;7.70;96.10;;;;;;5036549;28;20052;-80
2022/04/08 09:45:30;;;;;;;114.97;102.85;;;7.70;95.60;;;;;;5020115;28;20046;-80
2022/04/08 09:47:57;;;;;;;115.53;103.78;;;7.70;95.60;;;;;;5037060;28;20149;-80
2022/04/08 09:50:24;;;;;;;;;;;7.70;95.90;;;;;;5036694;28;20072;-79
2022/04/08 09:52:51;;;;;;;;;;;7.60;96.10;;;;;;5021324;28;19932;-79
2022/04/08 09:55:17;;;;;;;;;;;7.60;96.10;;;;;;5055005;28;20019;-80
2022/04/08 09:57:48;;;;;;;;;;;7.60;96.20;;;;;;5018881;28;19936;-78
2022/04/08 10:00:17;;;;;;;116.68;104.70;;;7.60;95.70;;;;;;5034323;28;20846;-78
2022/04/08 10:02:47;;;;;;;110.55;99.22;;;7.60;95.80;;;;;;5019649;28;20487;-79
2022/04/08 10:05:13;;;;;;;111.13;99.68;;;7.60;95.20;;;;;;5036667;28;20049;-79
2022/04/08 10:07:42;;;;;;;113.65;101.97;;;7.50;95.40;;;;;;5036378;28;20056;-78
2022/04/08 10:10:17;;;;;;;113.38;101.55;;;7.60;95.40;;;;;;5036120;28;20140;-79
2022/04/08 10:13:01;;;;;;;112.63;101.00;;;7.60;95.80;;;;;;5019458;28;20095;-80
2022/04/08 10:15:33;;;;;;;114.32;102.47;;;7.60;95.90;;;;;;5035135;28;20050;-80
2022/04/08 10:18:03;;;;;;;116.40;104.50;;;7.70;95.90;;;;;;5035252;28;20053;-79
2022/04/08 10:20:30;;;;;;;112.38;100.55;;;7.70;95.80;;;;;;5035097;28;20049;-79
2022/04/08 10:23:04;;;;;;;;;;;7.70;95.80;;;;;;5014286;28;20047;-79
2022/04/08 10:25:39;;;;;;;113.38;101.80;;;7.70;95.50;;;;;;5017292;28;19926;-79
2022/04/08 10:28:09;;;;;;;112.88;101.53;;;7.70;95.40;;;;;;5025674;28;20056;-79
2022/04/08 10:30:44;;;;;;;111.47;100.32;;;7.70;95.10;;;;;;5019903;28;20493;-79
2022/04/08 10:33:12;;;;;;;112.93;101.65;;;7.60;95.20;;;;;;5020260;28;20464;-79
2022/04/08 10:35:39;;;;;;;112.78;101.60;;;7.60;95.40;;;;;;5036135;28;20050;-78
2022/04/08 10:38:09;;;;;;;;;;;7.60;95.50;;;;;;5036539;28;20590;-78
2022/04/08 10:40:37;;;;;;;111.47;100.18;;;7.50;95.50;;;;;;5036448;28;19925;-78
2022/04/08 10:43:07;;;;;;;114.25;102.88;;;7.40;95.50;;;;;;5035525;28;20061;-78
2022/04/08 10:45:35;;;;;;;114.85;103.20;;;7.30;95.60;;;;;;5053384;28;20136;-78
2022/04/08 10:48:13;;;;;;;112.28;101.15;;;7.20;95.50;;;;;;5015790;28;20046;-78
2022/04/08 10:50:41;;;;;;;114.55;103.43;;;7.10;95.70;;;;;;5014782;28;20050;-78
2022/04/08 10:53:09;;;;;;;112.65;101.20;;;7.00;95.50;;;;;;5016057;28;20068;-78
2022/04/08 10:55:47;;;;;;;111.55;100.68;;;6.90;95.50;;;;;;5016271;28;20061;-78
2022/04/08 10:58:15;;;;;;;112.22;100.97;;;6.80;95.70;;;;;;5015242;28;20503;-78
2022/04/08 11:00:44;;;;;;;113.65;102.38;;;6.70;95.80;;;;;;5044286;28;20060;-78
2022/04/08 11:03:11;;;;;;;113.70;102.38;;;6.70;95.40;;;;;;5034595;28;20049;-79
2022/04/08 11:05:40;;;;;;;112.78;101.78;;;6.60;95.40;;;;;;5036100;28;20137;-79
2022/04/08 11:08:08;;;;;;;113.07;101.97;;;6.70;95.50;;;;;;5035536;28;20074;-80
2022/04/08 11:10:35;;;;;;;111.38;100.38;;;6.60;95.90;;;;;;5035905;28;20061;-79
2022/04/08 11:13:02;;;;;;;112.75;101.60;;;6.60;96.10;;;;;;5037273;28;20497;-79
2022/04/08 11:15:30;;;;;;;;;;;6.70;96.50;;;;;;5035749;28;20108;-79
2022/04/08 11:18:00;;;;;;;113.95;102.30;;;6.70;96.40;;;;;;5054197;28;19935;-79
2022/04/08 11:20:27;;;;;;;115.15;103.70;;;6.70;96.50;;;;;;5035308;28;20108;-78
2022/04/08 11:22:54;;;;;;;;;;;6.80;96.70;;;;;;5056216;28;20064;-78
2022/04/08 11:25:23;;;;;;;113.75;102.13;;;6.90;96.80;;;;;;5055204;28;19925;-79
2022/04/08 11:28:01;;;;;;;111.07;100.05;;;7.00;96.80;;;;;;5038091;28;20132;-78
2022/04/08 11:30:29;;;;;;;110.78;99.80;;;7.20;96.10;;;;;;5037264;28;20056;-79
2022/04/08 11:32:58;;;;;;;114.70;103.30;;;7.30;95.70;;;;;;5037438;28;20062;-79
2022/04/08 11:35:29;;;;;;;110.88;100.13;;;7.40;95.60;;;;;;5053426;28;20069;-80
2022/04/08 11:37:56;;;;;;;111.18;100.18;;;7.50;95.30;;;;;;5020874;28;20050;-80
2022/04/08 11:40:22;;;;;;;110.70;99.93;;;7.60;95.80;;;;;;5054985;28;20051;-80
2022/04/08 11:42:50;;;;;;;110.82;99.97;;;7.70;94.40;;;;;;5037675;28;20506;-81
2022/04/08 11:45:17;;;;;;;;;;;7.90;94.80;;;;;;5037522;28;20064;-79
2022/04/08 11:47:47;;;;;;;111.57;100.60;;;7.90;94.60;;;;;;5020785;28;20398;-79
2022/04/08 11:50:24;;;;;;;109.90;99.28;;;8.00;93.70;;;;;;5037889;28;20054;-79
2022/04/08 11:52:55;;;;;;;113.00;101.60;;;8.20;93.40;;;;;;5037521;28;20057;-80
2022/04/08 11:55:27;;;;;;;112.35;101.40;;;8.20;93.40;;;;;;5034715;28;20077;-81
2022/04/08 11:57:55;;;;;;;114.75;103.70;;;8.30;92.90;;;;;;5053503;28;20057;-79
2022/04/08 12:00:26;;;;;;;110.57;99.72;;;8.40;92.80;;;;;;5052759;28;20087;-79
2022/04/08 12:02:56;;;;;;;114.63;103.32;;;8.50;92.90;;;;;;5054211;28;20060;-79
2022/04/08 12:05:27;;;;;;;113.43;102.43;;;8.50;92.80;;;;;;5035316;28;20056;-80
2022/04/08 12:07:58;;;;;;;115.13;104.13;;;8.60;92.70;;;;;;5055024;28;20641;-79
2022/04/08 12:10:26;;;;;;;117.22;105.40;;;8.60;93.20;;;;;;5055363;28;20057;-83
2022/04/08 12:12:53;;;;;;;114.85;103.88;;;8.60;92.40;;;;;;5037440;28;20053;-79
2022/04/08 12:15:22;;;;;;;111.07;99.88;;;8.60;92.80;;;;;;5036826;28;20088;-75
2022/04/08 12:17:50;;;;;;;111.25;100.15;;;8.60;93.00;;;;;;5054686;28;20045;-76
2022/04/08 12:20:19;;;;;;;110.43;99.68;;;8.70;93.30;;;;;;5036784;28;20054;-75
2022/04/08 12:22:49;;;;;;;109.35;98.50;;;8.70;92.60;;;;;;5037482;28;20055;-79
2022/04/08 12:25:18;;;;;;;110.10;99.10;;;8.70;92.30;;;;;;5036733;28;20589;-76
2022/04/08 12:27:52;;;;;;;109.82;99.32;;;8.70;92.80;;;;;;5035890;28;20050;-76
2022/04/08 12:30:25;;;;;;;110.10;99.38;;;8.80;92.40;;;;;;5051791;28;20049;-75
2022/04/08 12:32:52;;;;;;;111.07;100.25;;;8.90;92.30;;;;;;5036488;28;20053;-76
2022/04/08 12:35:20;;;;;;;;;;;9.00;91.70;;;;;;5052122;28;20495;-76
2022/04/08 12:37:48;;;;;;;110.63;99.60;;;9.10;90.70;;;;;;5054084;28;19929;-76